sensor_id;sensor_type;location;lat;lon;timestamp;pressure;altitude;pressure_sealevel;temperature;humidity
38163;BME280;23977;53.078;18.248;2023-05-14T04:12:35;101847.66;;;18.03;49.88
38163;BME280;23977;53.078;18.248;2023-05-14T04:15:58;101754.78;;;18.29;46.80
38163;BME280;23977;53.078;18.248;2023-05-14T04:18:32;101804.38;;;19.16;45.96
38163;BME280;23977;53.078;18.248;2023-05-14T04:21:23;101643.84;;;18.83;43.73
38163;BME280;23977;53.078;18.248;2023-05-14T04:24:20;101610.28;;;19.14;42.82
38163;BME280;23977;53.078;18.248;2023-05-14T04:26:54;101895.69;;;21.18;42.34
38163;BME280;23977;53.078;18.248;2023-05-14T04:29:36;101694.19;;;20.59;42.13
38163;BME280;23977;53.078;18.248;2023-05-14T06:53:17;101748.44;;;35.63;20.03
38163;BME280;23977;53.078;18.248;2023-05-14T06:55:46;101771.81;;;35.43;20.10
38163;BME280;23977;53.078;18.248;2023-05-14T06:58:11;101720.28;;;36.76;19.50
38163;BME280;23977;53.078;18.248;2023-05-14T07:00:38;101702.88;;;39.00;17.19
38163;BME280;23977;53.078;18.248;2023-05-14T07:03:04;101736.19;;;40.12;16.11
38163;BME280;23977;53.078;18.248;2023-05-14T07:05:30;101715.16;;;39.64;16.85
38163;BME280;23977;53.078;18.248;2023-05-14T07:07:56;101722.88;;;39.11;16.66
38163;BME280;23977;53.078;18.248;2023-05-14T07:10:22;101696.88;;;39.75;16.46
38163;BME280;23977;53.078;18.248;2023-05-14T07:12:48;101786.28;;;38.79;18.02
38163;BME280;23977;53.078;18.248;2023-05-14T07:15:14;101754.31;;;39.12;17.43
38163;BME280;23977;53.078;18.248;2023-05-14T07:17:40;101678.91;;;39.94;16.24
38163;BME280;23977;53.078;18.248;2023-05-14T07:22:51;101686.38;;;40.99;15.56
38163;BME280;23977;53.078;18.248;2023-05-14T07:25:17;101710.31;;;43.24;14.54
38163;BME280;23977;53.078;18.248;2023-05-14T07:27:43;101727.19;;;43.43;13.91
38163;BME280;23977;53.078;18.248;2023-05-14T07:30:09;101744.09;;;43.31;14.45
38163;BME280;23977;53.078;18.248;2023-05-14T07:32:34;101747.00;;;43.19;14.21
38163;BME280;23977;53.078;18.248;2023-05-14T07:35:00;101712.00;;;43.96;13.82
38163;BME280;23977;53.078;18.248;2023-05-14T07:37:25;101664.06;;;42.54;13.19
38163;BME280;23977;53.078;18.248;2023-05-14T07:39:52;101711.59;;;44.33;12.70
38163;BME280;23977;53.078;18.248;2023-05-14T07:42:18;101731.06;;;45.77;12.05
38163;BME280;23977;53.078;18.248;2023-05-14T07:44:43;101703.31;;;44.40;12.72
38163;BME280;23977;53.078;18.248;2023-05-14T07:47:09;101669.06;;;44.31;12.67
38163;BME280;23977;53.078;18.248;2023-05-14T07:49:35;101723.16;;;45.13;12.96
38163;BME280;23977;53.078;18.248;2023-05-14T07:52:01;101726.59;;;47.12;11.44
38163;BME280;23977;53.078;18.248;2023-05-14T07:54:26;101691.72;;;46.86;11.88
38163;BME280;23977;53.078;18.248;2023-05-14T07:56:52;101692.31;;;47.58;11.68
38163;BME280;23977;53.078;18.248;2023-05-14T07:59:18;101707.66;;;47.60;11.47
38163;BME280;23977;53.078;18.248;2023-05-14T08:01:43;101671.63;;;47.32;11.87
38163;BME280;23977;53.078;18.248;2023-05-14T08:04:09;101680.13;;;47.39;11.63
38163;BME280;23977;53.078;18.248;2023-05-14T08:06:39;101669.06;;;50.20;10.43
38163;BME280;23977;53.078;18.248;2023-05-14T08:09:05;101678.22;;;49.25;10.45
38163;BME280;23977;53.078;18.248;2023-05-14T08:11:31;101633.78;;;49.33;9.95
38163;BME280;23977;53.078;18.248;2023-05-14T08:13:56;101669.47;;;50.75;9.96
38163;BME280;23977;53.078;18.248;2023-05-14T08:16:22;101685.63;;;50.88;9.94
38163;BME280;23977;53.078;18.248;2023-05-14T08:18:49;101657.19;;;49.44;9.38
38163;BME280;23977;53.078;18.248;2023-05-14T08:21:14;101631.34;;;49.45;9.82
38163;BME280;23977;53.078;18.248;2023-05-14T08:23:40;101667.75;;;51.33;9.10
38163;BME280;23977;53.078;18.248;2023-05-14T08:26:06;101659.97;;;50.99;9.44
38163;BME280;23977;53.078;18.248;2023-05-14T08:28:31;101630.34;;;51.76;7.96
38163;BME280;23977;53.078;18.248;2023-05-14T08:30:57;101647.97;;;49.04;9.47
38163;BME280;23977;53.078;18.248;2023-05-14T08:33:23;101602.50;;;51.33;8.41
38163;BME280;23977;53.078;18.248;2023-05-14T08:35:51;101632.56;;;51.65;8.87
38163;BME280;23977;53.078;18.248;2023-05-14T08:38:17;101616.00;;;52.45;8.91
38163;BME280;23977;53.078;18.248;2023-05-14T08:40:52;101619.22;;;53.75;7.61
38163;BME280;23977;53.078;18.248;2023-05-14T08:43:25;101632.06;;;52.79;7.87
38163;BME280;23977;53.078;18.248;2023-05-14T08:45:59;101618.56;;;52.09;7.54
38163;BME280;23977;53.078;18.248;2023-05-14T08:48:30;101630.91;;;51.30;7.96
38163;BME280;23977;53.078;18.248;2023-05-14T08:50:56;101621.41;;;50.64;8.43
38163;BME280;23977;53.078;18.248;2023-05-14T08:53:22;101611.00;;;49.83;8.43
38163;BME280;23977;53.078;18.248;2023-05-14T08:55:49;101630.56;;;49.31;8.88
38163;BME280;23977;53.078;18.248;2023-05-14T08:58:15;101626.44;;;47.98;8.69
38163;BME280;23977;53.078;18.248;2023-05-14T09:00:41;101596.63;;;45.93;10.15
38163;BME280;23977;53.078;18.248;2023-05-14T09:03:08;101609.66;;;43.70;10.94
38163;BME280;23977;53.078;18.248;2023-05-14T09:05:34;101610.59;;;43.23;11.01
38163;BME280;23977;53.078;18.248;2023-05-14T09:08:04;101601.53;;;42.50;11.49
38163;BME280;23977;53.078;18.248;2023-05-14T09:10:50;101594.13;;;38.76;13.64
38163;BME280;23977;53.078;18.248;2023-05-14T19:18:32;101033.38;;;15.24;55.94
38163;BME280;23977;53.078;18.248;2023-05-14T19:22:09;101233.06;;;16.63;57.27
